createdAt,value
2023-02-13T00:00:55.846Z,4.57
2023-02-13T00:03:57.508Z,4.82
2023-02-13T00:06:58.817Z,4.22
2023-02-13T00:10:00.111Z,4.28
2023-02-13T00:13:01.502Z,6.25
2023-02-13T00:16:03.910Z,3.90
2023-02-13T00:19:05.286Z,4.10
2023-02-13T00:22:06.690Z,4.80
2023-02-13T00:25:08.102Z,4.30
2023-02-13T00:28:09.415Z,3.45
2023-02-13T00:31:11.994Z,4.32
2023-02-13T00:34:13.322Z,4.40
2023-02-13T00:37:14.602Z,3.75
2023-02-13T00:40:15.830Z,2.88
2023-02-13T00:43:17.116Z,3.42
2023-02-13T00:46:18.559Z,4.70
2023-02-13T00:49:19.925Z,4.38
2023-02-13T00:52:21.226Z,5.15
2023-02-13T00:55:22.492Z,4.95
2023-02-13T00:58:24.325Z,4.47
2023-02-13T01:01:25.985Z,3.75
2023-02-13T01:04:27.297Z,3.95
2023-02-13T01:07:28.582Z,4.50
2023-02-13T01:10:29.835Z,3.90
2023-02-13T01:13:31.100Z,3.55
2023-02-13T01:16:32.351Z,3.08
2023-02-13T01:19:33.687Z,3.80
2023-02-13T01:22:35.386Z,2.80
2023-02-13T01:25:39.583Z,2.92
2023-02-13T01:28:40.887Z,4.13
2023-02-13T01:31:42.290Z,3.20
2023-02-13T01:34:43.652Z,3.95
2023-02-13T01:37:45.014Z,3.03
2023-02-13T01:40:50.446Z,2.75
2023-02-13T01:43:53.388Z,2.38
2023-02-13T01:46:54.736Z,2.78
2023-02-13T01:50:03.184Z,3.45
2023-02-13T01:53:07.063Z,3.63
2023-02-13T01:56:11.788Z,3.47
2023-02-13T01:59:16.081Z,4.25
2023-02-13T02:02:17.805Z,2.75
2023-02-13T02:05:20.795Z,2.97
2023-02-13T02:08:22.521Z,2.80
2023-02-13T02:11:41.011Z,3.55
2023-02-13T02:14:43.132Z,2.15
2023-02-13T02:17:44.403Z,3.10
2023-02-13T02:20:58.824Z,2.47
2023-02-13T02:24:17.299Z,3.67
2023-02-13T02:30:38.516Z,1.80
2023-02-13T02:33:46.072Z,1.90
2023-02-13T02:37:06.445Z,2.15
2023-02-13T02:40:07.697Z,2.22
2023-02-13T02:43:27.853Z,2.75
2023-02-13T02:46:34.707Z,2.55
2023-02-13T02:49:56.558Z,2.17
2023-02-13T02:53:07.063Z,3.60
2023-02-13T02:56:11.072Z,2.92
2023-02-13T02:59:34.071Z,2.58
2023-02-13T03:02:54.111Z,3.20
2023-02-13T03:06:11.103Z,2.50
2023-02-13T03:09:33.398Z,2.30
2023-02-13T03:13:02.619Z,2.38
2023-02-13T03:16:22.875Z,3.58
2023-02-13T03:19:42.777Z,2.33
2023-02-13T03:22:47.117Z,2.42
2023-02-13T03:25:48.378Z,2.17
2023-02-13T03:29:15.266Z,3.67
2023-02-13T03:32:34.880Z,2.80
2023-02-13T03:35:54.784Z,2.90
2023-02-13T03:39:01.156Z,2.03
2023-02-13T03:42:06.594Z,2.42
2023-02-13T03:45:30.176Z,3.40
2023-02-13T03:48:54.471Z,2.80
2023-02-13T03:52:02.876Z,3.20
2023-02-13T03:55:31.078Z,2.42
2023-02-13T03:58:56.043Z,2.50
2023-02-13T04:05:08.622Z,2.65
2023-02-13T04:08:09.968Z,2.45
2023-02-13T04:11:11.210Z,3.28
2023-02-13T04:14:41.875Z,2.35
2023-02-13T04:17:48.895Z,3.05
2023-02-13T04:20:50.146Z,2.47
2023-02-13T04:23:51.410Z,2.45
2023-02-13T04:26:53.911Z,3.63
2023-02-13T04:29:55.202Z,3.05
2023-02-13T04:32:56.496Z,2.30
2023-02-13T04:35:57.915Z,2.45
2023-02-13T04:38:59.323Z,2.45
2023-02-13T04:42:00.825Z,3.20
2023-02-13T04:45:02.179Z,3.08
2023-02-13T04:48:03.530Z,2.88
2023-02-13T04:51:06.082Z,2.78
2023-02-13T04:54:07.424Z,3.67
2023-02-13T04:57:08.712Z,2.13
2023-02-13T05:00:10.337Z,2.80
2023-02-13T05:03:12.540Z,2.17
2023-02-13T05:06:13.835Z,2.50
2023-02-13T05:09:15.147Z,3.05
2023-02-13T05:12:16.425Z,2.67
2023-02-13T05:15:18.293Z,2.85
2023-02-13T05:18:19.604Z,2.88
2023-02-13T05:21:39.964Z,1.80
2023-02-13T05:24:41.251Z,3.08
2023-02-13T05:27:42.502Z,2.17
2023-02-13T05:30:43.790Z,2.83
2023-02-13T05:33:45.173Z,2.75
2023-02-13T05:36:46.585Z,2.58
2023-02-13T05:39:47.870Z,2.33
2023-02-13T05:42:49.209Z,2.25
2023-02-13T05:45:52.195Z,2.90
2023-02-13T05:48:53.540Z,2.55
2023-02-13T05:51:54.982Z,2.45
2023-02-13T05:54:56.309Z,1.85
2023-02-13T05:57:57.757Z,2.85
2023-02-13T06:01:00.347Z,2.70
2023-02-13T06:04:03.871Z,2.50
2023-02-13T06:07:05.386Z,3.63
2023-02-13T06:10:07.146Z,2.63
2023-02-13T06:13:08.379Z,2.63
2023-02-13T06:16:10.776Z,2.72
2023-02-13T06:19:12.141Z,3.60
2023-02-13T06:22:13.442Z,2.42
2023-02-13T06:25:14.753Z,3.45
2023-02-13T06:28:16.111Z,3.17
2023-02-13T06:31:17.521Z,2.58
2023-02-13T06:34:18.922Z,2.25
2023-02-13T06:37:20.229Z,2.53
2023-02-13T06:40:21.650Z,2.00
2023-02-13T06:43:22.965Z,3.30
2023-02-13T06:46:24.587Z,3.40
2023-02-13T06:49:25.878Z,3.95
2023-02-13T06:52:27.384Z,4.53
2023-02-13T06:55:28.833Z,3.00
2023-02-13T06:58:30.088Z,4.55
2023-02-13T07:01:32.755Z,3.30
2023-02-13T07:04:34.025Z,3.63
2023-02-13T07:07:36.353Z,2.45
2023-02-13T07:10:38.668Z,4.18
2023-02-13T07:13:42.228Z,4.47
2023-02-13T07:16:43.623Z,4.20
2023-02-13T07:19:44.996Z,2.92
2023-02-13T07:22:46.263Z,3.72
2023-02-13T07:25:47.506Z,4.70
2023-02-13T07:28:49.994Z,3.42
2023-02-13T07:31:51.373Z,3.47
2023-02-13T07:35:01.733Z,3.50
2023-02-13T07:38:04.523Z,3.60
2023-02-13T07:41:05.814Z,4.03
2023-02-13T07:44:07.142Z,4.32
2023-02-13T07:47:08.428Z,3.58
2023-02-13T07:50:10.132Z,4.40
2023-02-13T07:53:11.568Z,4.13
2023-02-13T07:56:12.861Z,4.25
2023-02-13T07:59:14.126Z,3.92
2023-02-13T08:02:16.154Z,4.65
2023-02-13T08:05:17.734Z,4.60
2023-02-13T08:08:19.111Z,5.10
2023-02-13T08:11:44.154Z,4.75
2023-02-13T08:14:45.430Z,4.07
2023-02-13T08:17:46.776Z,3.72
2023-02-13T08:20:48.525Z,3.95
2023-02-13T08:23:51.907Z,3.25
2023-02-13T08:26:53.194Z,3.97
2023-02-13T08:29:54.491Z,3.58
2023-02-13T08:32:55.860Z,4.40
2023-02-13T08:35:57.445Z,4.25
2023-02-13T08:38:59.009Z,3.92
2023-02-13T08:42:00.460Z,3.58
2023-02-13T08:45:01.756Z,3.78
2023-02-13T08:48:04.197Z,4.35
2023-02-13T08:51:09.117Z,5.00
2023-02-13T08:54:10.400Z,4.32
2023-02-13T08:57:11.825Z,4.38
2023-02-13T09:00:13.569Z,3.97
2023-02-13T09:03:15.319Z,3.40
2023-02-13T09:06:16.821Z,3.95
2023-02-13T09:09:18.519Z,3.78
2023-02-13T09:12:19.837Z,8.75
2023-02-13T09:15:21.331Z,5.13
2023-02-13T09:18:22.603Z,9.98
2023-02-13T09:21:23.961Z,8.20
2023-02-13T09:24:25.865Z,5.57
2023-02-13T09:27:27.174Z,4.78
2023-02-13T09:30:28.846Z,5.63
2023-02-13T09:33:30.159Z,5.82
2023-02-13T09:36:31.431Z,5.82
2023-02-13T09:39:32.680Z,5.25
2023-02-13T09:42:36.844Z,5.00
2023-02-13T09:45:38.202Z,7.03
2023-02-13T09:48:40.910Z,5.90
2023-02-13T09:51:43.523Z,4.78
2023-02-13T09:54:44.829Z,5.72
2023-02-13T09:57:50.347Z,5.75
2023-02-13T10:00:53.860Z,4.28
2023-02-13T10:03:58.212Z,4.97
2023-02-13T10:07:17.362Z,5.13
2023-02-13T10:10:34.061Z,6.47
2023-02-13T10:13:50.356Z,5.70
2023-02-13T10:16:52.048Z,5.88
2023-02-13T10:20:03.244Z,6.18
2023-02-13T10:23:23.258Z,6.18
2023-02-13T10:26:42.545Z,6.03
2023-02-13T10:30:05.147Z,7.05
2023-02-13T10:33:18.835Z,5.25
2023-02-13T10:36:37.499Z,5.78
2023-02-13T10:39:40.807Z,6.55
2023-02-13T10:42:42.119Z,6.70
2023-02-13T10:45:51.851Z,6.35
2023-02-13T10:49:02.388Z,5.47
2023-02-13T10:52:03.665Z,5.25
2023-02-13T10:55:31.350Z,5.43
2023-02-13T10:58:45.782Z,4.75
2023-02-13T11:01:47.179Z,5.15
2023-02-13T11:04:49.827Z,4.63
2023-02-13T11:07:51.174Z,4.15
2023-02-13T11:10:52.643Z,3.58
2023-02-13T11:14:08.051Z,3.33
2023-02-13T11:17:17.052Z,4.00
2023-02-13T11:20:24.382Z,4.00
2023-02-13T11:23:33.253Z,4.47
2023-02-13T11:26:36.065Z,4.63
2023-02-13T11:29:39.099Z,4.50
2023-02-13T11:32:40.380Z,4.07
2023-02-13T11:35:41.688Z,3.72
2023-02-13T11:38:43.315Z,4.18
2023-02-13T11:41:45.682Z,4.20
2023-02-13T11:44:52.437Z,4.13
2023-02-13T11:47:56.533Z,4.20
2023-02-13T11:50:58.241Z,4.68
2023-02-13T11:54:01.109Z,4.40
2023-02-13T11:57:21.128Z,4.13
2023-02-13T12:00:31.165Z,3.95
2023-02-13T12:03:32.813Z,3.97
2023-02-13T12:06:39.921Z,3.83
2023-02-13T12:09:41.904Z,3.72
2023-02-13T12:12:47.257Z,3.75
2023-02-13T12:16:00.315Z,4.10
2023-02-13T12:19:04.927Z,3.92
2023-02-13T12:22:15.054Z,4.45
2023-02-13T12:25:28.066Z,4.43
2023-02-13T12:28:41.780Z,4.25
2023-02-13T12:31:54.920Z,4.32
2023-02-13T12:35:25.721Z,4.85
2023-02-13T12:38:47.046Z,5.13
2023-02-13T12:42:01.382Z,4.45
2023-02-13T12:45:02.674Z,4.35
2023-02-13T12:48:09.585Z,4.68
2023-02-13T12:51:10.887Z,4.72
2023-02-13T12:54:22.733Z,4.60
2023-02-13T12:57:33.001Z,4.72
2023-02-13T13:00:43.265Z,5.57
2023-02-13T13:03:59.900Z,5.25
2023-02-13T13:07:18.377Z,4.25
2023-02-13T13:10:27.056Z,4.68
2023-02-13T13:13:39.312Z,4.00
2023-02-13T13:16:42.828Z,4.07
2023-02-13T13:20:02.934Z,4.07
2023-02-13T13:23:14.961Z,4.72
2023-02-13T13:26:57.231Z,4.47
2023-02-13T13:30:01.087Z,4.72
2023-02-13T13:33:04.114Z,4.70
2023-02-13T13:36:09.598Z,4.85
2023-02-13T13:39:26.754Z,4.90
2023-02-13T13:42:40.320Z,5.07
2023-02-13T13:45:59.565Z,4.63
2023-02-13T13:49:11.711Z,4.68
2023-02-13T13:52:33.056Z,4.35
2023-02-13T13:55:46.506Z,4.40
2023-02-13T13:58:49.503Z,4.50
2023-02-13T14:02:10.803Z,4.65
2023-02-13T14:05:20.297Z,4.18
2023-02-13T14:08:36.997Z,3.80
2023-02-13T14:11:39.576Z,3.70
2023-02-13T14:14:40.884Z,4.20
2023-02-13T14:17:44.959Z,4.35
2023-02-13T14:20:51.982Z,4.00
2023-02-13T14:23:53.668Z,4.20
2023-02-13T14:27:05.094Z,4.63
2023-02-13T14:30:25.666Z,4.07
2023-02-13T14:33:29.799Z,4.18
2023-02-13T14:36:33.667Z,4.80
2023-02-13T14:39:35.926Z,4.60
2023-02-13T14:42:37.803Z,4.30
2023-02-13T14:45:46.808Z,4.00
2023-02-13T14:49:02.514Z,4.22
2023-02-13T14:52:08.314Z,3.83
2023-02-13T14:55:14.495Z,4.47
2023-02-13T14:58:27.989Z,4.13
2023-02-13T15:01:34.599Z,4.10
2023-02-13T15:04:41.493Z,4.43
2023-02-13T15:07:46.334Z,4.25
2023-02-13T15:10:53.083Z,4.75
2023-02-13T15:13:54.417Z,4.03
2023-02-13T15:16:58.759Z,4.38
2023-02-13T15:20:04.668Z,4.13
2023-02-13T15:23:09.592Z,4.30
2023-02-13T15:26:19.087Z,4.00
2023-02-13T15:29:29.430Z,3.97
2023-02-13T15:32:39.005Z,4.20
2023-02-13T15:35:40.966Z,4.15
2023-02-13T15:38:42.224Z,4.35
2023-02-13T15:41:45.297Z,3.78
2023-02-13T15:44:48.801Z,3.95
2023-02-13T15:47:50.979Z,3.78
2023-02-13T15:50:53.177Z,4.07
2023-02-13T15:53:55.575Z,4.25
2023-02-13T15:56:59.059Z,3.97
2023-02-13T16:00:01.265Z,4.05
2023-02-13T16:03:04.293Z,4.28
2023-02-13T16:06:06.674Z,4.15
2023-02-13T16:09:22.148Z,4.00
2023-02-13T16:12:23.431Z,3.50
2023-02-13T16:15:27.837Z,3.63
2023-02-13T16:21:31.356Z,3.63
2023-02-13T16:24:32.923Z,3.30
2023-02-13T16:27:34.603Z,3.63
2023-02-13T16:30:37.573Z,3.78
2023-02-13T16:33:42.270Z,4.38
2023-02-13T16:36:43.659Z,4.75
2023-02-13T16:39:44.944Z,3.75
2023-02-13T16:42:46.269Z,4.32
2023-02-13T16:45:47.728Z,4.72
2023-02-13T16:49:01.160Z,7.75
2023-02-13T16:52:20.805Z,4.05
2023-02-13T16:55:22.104Z,4.40
2023-02-13T16:58:23.431Z,4.68
2023-02-13T17:01:24.771Z,4.63
2023-02-13T17:04:26.151Z,4.53
2023-02-13T17:07:28.913Z,5.45
2023-02-13T17:10:32.246Z,4.28
2023-02-13T17:13:34.119Z,5.82
2023-02-13T17:16:35.488Z,8.60
2023-02-13T17:19:36.793Z,7.38
2023-02-13T17:22:39.834Z,8.05
2023-02-13T17:25:42.656Z,7.60
2023-02-13T17:28:43.923Z,5.20
2023-02-13T17:31:45.365Z,5.97
2023-02-13T17:34:46.781Z,6.55
2023-02-13T17:37:48.100Z,7.35
2023-02-13T17:40:49.432Z,7.38
2023-02-13T17:43:50.741Z,6.32
2023-02-13T17:46:52.025Z,5.88
2023-02-13T17:49:59.173Z,5.35
2023-02-13T17:53:07.329Z,5.53
2023-02-13T17:56:08.605Z,5.70
2023-02-13T17:59:09.909Z,5.03
2023-02-13T18:02:12.491Z,6.57
2023-02-13T18:05:14.358Z,5.65
2023-02-13T18:08:15.992Z,5.88
2023-02-13T18:11:17.235Z,4.40
2023-02-13T18:14:18.524Z,4.55
2023-02-13T18:17:20.132Z,5.22
2023-02-13T18:20:21.429Z,5.50
2023-02-13T18:23:22.735Z,4.50
2023-02-13T18:26:24.021Z,5.55
2023-02-13T18:29:25.585Z,5.43
2023-02-13T18:32:26.913Z,5.43
2023-02-13T18:35:28.306Z,4.65
2023-02-13T18:38:29.627Z,5.93
2023-02-13T18:41:30.987Z,4.97
2023-02-13T18:44:32.333Z,5.88
2023-02-13T18:47:33.614Z,4.65
2023-02-13T18:50:34.948Z,4.10
2023-02-13T18:53:36.277Z,5.97
2023-02-13T18:56:37.606Z,5.32
2023-02-13T18:59:38.918Z,4.85
2023-02-13T19:02:40.315Z,4.53
2023-02-13T19:05:42.912Z,5.40
2023-02-13T19:08:44.321Z,4.90
2023-02-13T19:11:47.876Z,5.00
2023-02-13T19:14:49.170Z,5.30
2023-02-13T19:17:50.644Z,4.50
2023-02-13T19:20:51.909Z,3.60
2023-02-13T19:23:53.275Z,5.10
2023-02-13T19:26:54.704Z,4.25
2023-02-13T19:29:56.114Z,5.60
2023-02-13T19:32:57.435Z,7.30
2023-02-13T19:35:59.897Z,7.55
2023-02-13T19:39:05.247Z,6.55
2023-02-13T19:42:06.647Z,6.97
2023-02-13T19:45:08.262Z,6.57
2023-02-13T19:48:09.604Z,7.00
2023-02-13T19:51:14.812Z,6.32
2023-02-13T19:54:16.115Z,6.93
2023-02-13T19:57:18.353Z,5.25
2023-02-13T20:00:19.815Z,5.82
2023-02-13T20:03:21.273Z,7.00
2023-02-13T20:06:23.766Z,5.93
2023-02-13T20:09:25.146Z,6.72
2023-02-13T20:12:26.435Z,6.30
2023-02-13T20:15:27.736Z,6.28
2023-02-13T20:18:29.035Z,5.25
2023-02-13T20:21:30.337Z,5.28
2023-02-13T20:24:32.995Z,4.32
2023-02-13T20:27:41.942Z,4.60
2023-02-13T20:30:44.626Z,5.20
2023-02-13T20:33:46.472Z,4.60
2023-02-13T20:36:47.824Z,5.00
2023-02-13T20:39:49.329Z,4.72
2023-02-13T20:42:50.664Z,4.38
2023-02-13T20:45:55.849Z,4.70
2023-02-13T20:48:57.239Z,5.82
2023-02-13T20:51:58.570Z,4.63
2023-02-13T20:55:01.309Z,4.78
2023-02-13T20:58:02.549Z,4.70
2023-02-13T21:01:10.089Z,4.40
2023-02-13T21:04:13.711Z,4.05
2023-02-13T21:07:15.006Z,4.63
2023-02-13T21:10:16.397Z,4.47
2023-02-13T21:13:17.659Z,4.22
2023-02-13T21:16:20.495Z,4.75
2023-02-13T21:19:21.974Z,4.45
2023-02-13T21:22:23.298Z,5.03
2023-02-13T21:25:24.749Z,3.55
2023-02-13T21:28:26.079Z,4.32
2023-02-13T21:31:32.442Z,3.88
2023-02-13T21:34:33.924Z,4.53
2023-02-13T21:37:35.297Z,5.40
2023-02-13T21:40:36.633Z,4.70
2023-02-13T21:43:37.925Z,3.78
2023-02-13T21:46:39.224Z,4.05
2023-02-13T21:49:40.577Z,4.75
2023-02-13T21:52:41.879Z,4.10
2023-02-13T21:55:43.212Z,3.00
2023-02-13T21:58:44.981Z,3.70
2023-02-13T22:01:47.405Z,4.35
2023-02-13T22:04:49.216Z,4.30
2023-02-13T22:08:09.284Z,4.35
2023-02-13T22:11:10.567Z,3.38
2023-02-13T22:14:13.301Z,3.20
2023-02-13T22:17:14.543Z,3.55
2023-02-13T22:20:15.866Z,4.05
2023-02-13T22:23:17.261Z,3.15
2023-02-13T22:26:23.325Z,3.15
2023-02-13T22:29:26.868Z,2.30
2023-02-13T22:32:28.169Z,3.65
2023-02-13T22:35:29.472Z,3.47
2023-02-13T22:38:37.932Z,3.13
2023-02-13T22:41:39.399Z,3.47
2023-02-13T22:44:40.753Z,2.95
2023-02-13T22:47:42.108Z,3.85
2023-02-13T22:50:43.391Z,3.15
2023-02-13T22:53:45.014Z,3.33
2023-02-13T22:56:46.286Z,3.17
2023-02-13T22:59:47.538Z,4.43
2023-02-13T23:02:49.496Z,3.70
2023-02-13T23:05:51.013Z,3.28
2023-02-13T23:08:53.489Z,4.13
2023-02-13T23:12:13.767Z,4.05
2023-02-13T23:15:15.421Z,3.05
2023-02-13T23:18:17.877Z,3.85
2023-02-13T23:21:19.540Z,4.03
2023-02-13T23:24:21.193Z,4.70
2023-02-13T23:27:22.441Z,3.10
2023-02-13T23:30:24.212Z,3.08
2023-02-13T23:33:25.600Z,4.03
2023-02-13T23:36:26.974Z,3.72
2023-02-13T23:39:28.249Z,3.80
2023-02-13T23:42:29.510Z,3.05
2023-02-13T23:45:30.797Z,3.28
2023-02-13T23:48:32.619Z,3.30
2023-02-13T23:51:33.905Z,2.95
2023-02-13T23:54:35.361Z,2.75
2023-02-13T23:57:36.670Z,2.55
